sensor_id;sensor_type;location;lat;lon;timestamp;temperature;humidity
758;DHT22;363;48.764;9.172;2023-05-15T00:00:10;11.20;99.90
758;DHT22;363;48.764;9.172;2023-05-15T00:02:36;11.10;99.90
758;DHT22;363;48.764;9.172;2023-05-15T00:05:12;11.30;99.90
758;DHT22;363;48.764;9.172;2023-05-15T00:07:38;11.00;99.90
758;DHT22;363;48.764;9.172;2023-05-15T00:10:05;11.10;99.90
758;DHT22;363;48.764;9.172;2023-05-15T00:12:31;11.20;99.90
758;DHT22;363;48.764;9.172;2023-05-15T00:14:56;11.20;99.90
758;DHT22;363;48.764;9.172;2023-05-15T00:17:22;11.10;99.90
758;DHT22;363;48.764;9.172;2023-05-15T00:19:47;11.20;99.90
758;DHT22;363;48.764;9.172;2023-05-15T00:22:13;11.30;99.90
758;DHT22;363;48.764;9.172;2023-05-15T00:24:39;11.10;99.90
758;DHT22;363;48.764;9.172;2023-05-15T00:27:04;11.10;99.90
758;DHT22;363;48.764;9.172;2023-05-15T00:29:30;11.20;99.90
758;DHT22;363;48.764;9.172;2023-05-15T00:31:56;11.00;99.90
758;DHT22;363;48.764;9.172;2023-05-15T00:34:21;11.40;99.90
758;DHT22;363;48.764;9.172;2023-05-15T00:36:47;11.30;99.90
758;DHT22;363;48.764;9.172;2023-05-15T00:39:13;11.40;99.90
758;DHT22;363;48.764;9.172;2023-05-15T00:41:40;11.10;99.90
758;DHT22;363;48.764;9.172;2023-05-15T00:44:06;11.40;99.90
758;DHT22;363;48.764;9.172;2023-05-15T00:46:34;11.30;99.90
758;DHT22;363;48.764;9.172;2023-05-15T00:49:02;11.50;99.90
758;DHT22;363;48.764;9.172;2023-05-15T00:51:28;11.50;99.90
758;DHT22;363;48.764;9.172;2023-05-15T00:53:54;11.50;99.90
758;DHT22;363;48.764;9.172;2023-05-15T00:56:21;11.40;99.90
758;DHT22;363;48.764;9.172;2023-05-15T00:58:48;11.80;99.90
758;DHT22;363;48.764;9.172;2023-05-15T01:01:15;11.90;99.90
758;DHT22;363;48.764;9.172;2023-05-15T01:03:44;11.70;99.90
758;DHT22;363;48.764;9.172;2023-05-15T01:06:10;11.70;99.90
758;DHT22;363;48.764;9.172;2023-05-15T01:08:44;11.70;99.90
758;DHT22;363;48.764;9.172;2023-05-15T01:11:12;11.70;99.90
758;DHT22;363;48.764;9.172;2023-05-15T01:13:38;11.70;99.90
758;DHT22;363;48.764;9.172;2023-05-15T01:16:04;11.60;99.90
758;DHT22;363;48.764;9.172;2023-05-15T01:18:30;11.50;99.90
758;DHT22;363;48.764;9.172;2023-05-15T01:29:29;11.50;99.90
758;DHT22;363;48.764;9.172;2023-05-15T01:32:09;11.50;99.90
758;DHT22;363;48.764;9.172;2023-05-15T01:37:50;11.70;99.90
758;DHT22;363;48.764;9.172;2023-05-15T01:40:20;11.40;99.90
758;DHT22;363;48.764;9.172;2023-05-15T01:43:01;11.70;99.90
758;DHT22;363;48.764;9.172;2023-05-15T01:45:28;11.60;99.90
758;DHT22;363;48.764;9.172;2023-05-15T01:47:56;11.50;99.90
758;DHT22;363;48.764;9.172;2023-05-15T01:50:25;11.50;99.90
758;DHT22;363;48.764;9.172;2023-05-15T01:52:55;11.60;99.90
758;DHT22;363;48.764;9.172;2023-05-15T01:55:23;11.40;99.90
758;DHT22;363;48.764;9.172;2023-05-15T01:57:50;11.90;99.90
758;DHT22;363;48.764;9.172;2023-05-15T02:00:16;11.70;99.90
758;DHT22;363;48.764;9.172;2023-05-15T02:02:43;11.70;99.90
758;DHT22;363;48.764;9.172;2023-05-15T02:05:11;11.80;99.90
758;DHT22;363;48.764;9.172;2023-05-15T02:07:37;11.80;99.90
758;DHT22;363;48.764;9.172;2023-05-15T02:10:03;11.60;99.90
758;DHT22;363;48.764;9.172;2023-05-15T02:12:30;11.50;99.90
758;DHT22;363;48.764;9.172;2023-05-15T02:14:57;11.60;99.90
758;DHT22;363;48.764;9.172;2023-05-15T02:17:23;11.60;99.90
758;DHT22;363;48.764;9.172;2023-05-15T02:19:49;11.70;99.90
758;DHT22;363;48.764;9.172;2023-05-15T02:22:15;11.50;99.90
758;DHT22;363;48.764;9.172;2023-05-15T02:24:41;11.50;99.90
758;DHT22;363;48.764;9.172;2023-05-15T02:27:32;11.70;99.90
758;DHT22;363;48.764;9.172;2023-05-15T02:30:29;11.20;99.90
758;DHT22;363;48.764;9.172;2023-05-15T02:36:04;11.20;99.90
758;DHT22;363;48.764;9.172;2023-05-15T02:38:43;11.30;99.90
758;DHT22;363;48.764;9.172;2023-05-15T02:41:11;11.60;99.90
758;DHT22;363;48.764;9.172;2023-05-15T02:43:38;11.50;99.90
758;DHT22;363;48.764;9.172;2023-05-15T02:46:05;11.40;99.90
758;DHT22;363;48.764;9.172;2023-05-15T02:48:40;11.20;99.90
758;DHT22;363;48.764;9.172;2023-05-15T02:51:06;11.30;99.90
758;DHT22;363;48.764;9.172;2023-05-15T02:53:33;11.20;99.90
758;DHT22;363;48.764;9.172;2023-05-15T02:56:03;11.30;99.90
758;DHT22;363;48.764;9.172;2023-05-15T02:58:29;11.20;99.90
758;DHT22;363;48.764;9.172;2023-05-15T03:00:54;11.20;99.90
758;DHT22;363;48.764;9.172;2023-05-15T03:03:20;10.70;99.90
758;DHT22;363;48.764;9.172;2023-05-15T03:05:46;11.30;99.90
758;DHT22;363;48.764;9.172;2023-05-15T03:08:12;11.40;99.90
758;DHT22;363;48.764;9.172;2023-05-15T03:10:37;11.70;99.90
758;DHT22;363;48.764;9.172;2023-05-15T03:13:03;11.60;99.90
758;DHT22;363;48.764;9.172;2023-05-15T03:15:28;11.60;99.90
758;DHT22;363;48.764;9.172;2023-05-15T03:17:54;11.80;99.90
758;DHT22;363;48.764;9.172;2023-05-15T03:20:20;11.40;99.90
758;DHT22;363;48.764;9.172;2023-05-15T03:22:45;11.50;99.90
758;DHT22;363;48.764;9.172;2023-05-15T03:25:11;11.50;99.90
758;DHT22;363;48.764;9.172;2023-05-15T03:27:37;11.50;99.90
758;DHT22;363;48.764;9.172;2023-05-15T03:30:04;11.60;99.90
758;DHT22;363;48.764;9.172;2023-05-15T03:32:30;11.80;99.90
758;DHT22;363;48.764;9.172;2023-05-15T03:34:55;11.40;99.90
758;DHT22;363;48.764;9.172;2023-05-15T03:37:21;11.50;99.90
758;DHT22;363;48.764;9.172;2023-05-15T03:39:46;11.60;99.90
758;DHT22;363;48.764;9.172;2023-05-15T03:42:12;11.40;99.90
758;DHT22;363;48.764;9.172;2023-05-15T03:44:37;11.50;99.90
758;DHT22;363;48.764;9.172;2023-05-15T03:47:03;11.80;99.90
758;DHT22;363;48.764;9.172;2023-05-15T03:49:29;12.00;99.90
758;DHT22;363;48.764;9.172;2023-05-15T03:51:55;11.80;99.90
758;DHT22;363;48.764;9.172;2023-05-15T03:54:22;11.80;99.90
758;DHT22;363;48.764;9.172;2023-05-15T03:56:47;12.00;99.90
758;DHT22;363;48.764;9.172;2023-05-15T03:59:13;11.90;99.90
758;DHT22;363;48.764;9.172;2023-05-15T04:01:39;11.80;99.90
758;DHT22;363;48.764;9.172;2023-05-15T04:04:04;12.10;99.90
758;DHT22;363;48.764;9.172;2023-05-15T04:06:30;12.00;99.90
758;DHT22;363;48.764;9.172;2023-05-15T04:08:56;11.90;99.90
758;DHT22;363;48.764;9.172;2023-05-15T04:11:21;12.00;99.90
758;DHT22;363;48.764;9.172;2023-05-15T04:13:48;11.80;99.90
758;DHT22;363;48.764;9.172;2023-05-15T04:16:13;12.20;99.90
758;DHT22;363;48.764;9.172;2023-05-15T04:18:39;12.20;99.90
758;DHT22;363;48.764;9.172;2023-05-15T04:21:04;12.20;99.90
758;DHT22;363;48.764;9.172;2023-05-15T04:23:30;12.50;99.90
758;DHT22;363;48.764;9.172;2023-05-15T04:25:56;12.20;99.90
758;DHT22;363;48.764;9.172;2023-05-15T04:28:21;12.30;99.90
758;DHT22;363;48.764;9.172;2023-05-15T04:30:47;12.40;99.90
758;DHT22;363;48.764;9.172;2023-05-15T04:33:12;12.20;99.90
758;DHT22;363;48.764;9.172;2023-05-15T04:35:38;12.30;99.90
758;DHT22;363;48.764;9.172;2023-05-15T04:38:04;12.40;99.90
758;DHT22;363;48.764;9.172;2023-05-15T04:40:30;12.60;99.90
758;DHT22;363;48.764;9.172;2023-05-15T04:42:56;12.60;99.90
758;DHT22;363;48.764;9.172;2023-05-15T04:45:21;12.50;99.90
758;DHT22;363;48.764;9.172;2023-05-15T04:47:49;12.70;99.90
758;DHT22;363;48.764;9.172;2023-05-15T04:50:14;12.80;99.90
758;DHT22;363;48.764;9.172;2023-05-15T04:52:40;12.80;99.90
758;DHT22;363;48.764;9.172;2023-05-15T04:55:08;12.90;99.90
758;DHT22;363;48.764;9.172;2023-05-15T04:57:33;13.10;99.90
758;DHT22;363;48.764;9.172;2023-05-15T05:00:00;13.40;99.90
758;DHT22;363;48.764;9.172;2023-05-15T05:02:25;13.30;99.90
758;DHT22;363;48.764;9.172;2023-05-15T05:04:51;13.50;99.90
758;DHT22;363;48.764;9.172;2023-05-15T05:07:17;13.70;99.90
758;DHT22;363;48.764;9.172;2023-05-15T05:09:43;13.70;99.90
758;DHT22;363;48.764;9.172;2023-05-15T05:12:08;13.60;99.90
758;DHT22;363;48.764;9.172;2023-05-15T05:14:34;13.80;99.90
758;DHT22;363;48.764;9.172;2023-05-15T05:17:01;14.40;99.90
758;DHT22;363;48.764;9.172;2023-05-15T05:19:26;14.20;99.90
758;DHT22;363;48.764;9.172;2023-05-15T05:21:55;14.50;99.90
758;DHT22;363;48.764;9.172;2023-05-15T05:24:22;14.80;99.90
758;DHT22;363;48.764;9.172;2023-05-15T05:26:48;14.90;99.90
758;DHT22;363;48.764;9.172;2023-05-15T05:29:14;15.30;99.90
758;DHT22;363;48.764;9.172;2023-05-15T05:31:39;15.30;99.90
758;DHT22;363;48.764;9.172;2023-05-15T05:34:05;15.10;99.90
758;DHT22;363;48.764;9.172;2023-05-15T05:36:31;15.60;99.90
758;DHT22;363;48.764;9.172;2023-05-15T05:38:57;15.40;99.90
758;DHT22;363;48.764;9.172;2023-05-15T05:41:22;15.50;99.90
758;DHT22;363;48.764;9.172;2023-05-15T05:43:48;15.30;99.90
758;DHT22;363;48.764;9.172;2023-05-15T05:46:13;15.60;99.90
758;DHT22;363;48.764;9.172;2023-05-15T05:48:39;15.90;99.90
758;DHT22;363;48.764;9.172;2023-05-15T05:51:05;15.60;99.90
758;DHT22;363;48.764;9.172;2023-05-15T05:53:30;16.00;99.90
758;DHT22;363;48.764;9.172;2023-05-15T05:55:56;16.30;99.90
758;DHT22;363;48.764;9.172;2023-05-15T05:58:21;16.20;99.90
758;DHT22;363;48.764;9.172;2023-05-15T06:00:47;16.10;99.90
758;DHT22;363;48.764;9.172;2023-05-15T06:03:13;16.40;99.90
758;DHT22;363;48.764;9.172;2023-05-15T06:05:38;16.00;99.90
758;DHT22;363;48.764;9.172;2023-05-15T06:08:04;16.20;99.90
758;DHT22;363;48.764;9.172;2023-05-15T06:10:30;16.40;99.90
758;DHT22;363;48.764;9.172;2023-05-15T06:12:56;16.30;99.90
758;DHT22;363;48.764;9.172;2023-05-15T06:15:22;16.40;99.90
758;DHT22;363;48.764;9.172;2023-05-15T06:17:47;16.20;99.90
758;DHT22;363;48.764;9.172;2023-05-15T06:20:14;16.20;99.90
758;DHT22;363;48.764;9.172;2023-05-15T06:22:40;16.60;99.90
758;DHT22;363;48.764;9.172;2023-05-15T06:25:06;16.60;99.90
758;DHT22;363;48.764;9.172;2023-05-15T06:27:32;16.30;99.90
758;DHT22;363;48.764;9.172;2023-05-15T06:29:58;16.50;99.90
758;DHT22;363;48.764;9.172;2023-05-15T06:32:24;16.40;99.90
758;DHT22;363;48.764;9.172;2023-05-15T06:34:50;16.30;99.90
758;DHT22;363;48.764;9.172;2023-05-15T06:37:15;16.60;99.90
758;DHT22;363;48.764;9.172;2023-05-15T06:39:41;16.70;99.90
758;DHT22;363;48.764;9.172;2023-05-15T06:42:07;16.80;99.90
758;DHT22;363;48.764;9.172;2023-05-15T06:44:32;17.20;99.90
758;DHT22;363;48.764;9.172;2023-05-15T06:46:58;17.20;99.90
758;DHT22;363;48.764;9.172;2023-05-15T06:49:24;17.50;99.90
758;DHT22;363;48.764;9.172;2023-05-15T06:51:50;17.30;99.90
758;DHT22;363;48.764;9.172;2023-05-15T06:54:16;17.50;99.90
758;DHT22;363;48.764;9.172;2023-05-15T06:56:42;17.40;99.90
758;DHT22;363;48.764;9.172;2023-05-15T06:59:08;18.00;99.90
758;DHT22;363;48.764;9.172;2023-05-15T07:01:33;18.60;99.10
758;DHT22;363;48.764;9.172;2023-05-15T07:03:59;19.60;96.50
758;DHT22;363;48.764;9.172;2023-05-15T07:06:25;20.60;94.70
758;DHT22;363;48.764;9.172;2023-05-15T07:08:51;23.20;92.10
758;DHT22;363;48.764;9.172;2023-05-15T07:11:17;23.80;87.80
758;DHT22;363;48.764;9.172;2023-05-15T07:13:58;25.10;82.20
758;DHT22;363;48.764;9.172;2023-05-15T07:16:23;27.40;75.40
758;DHT22;363;48.764;9.172;2023-05-15T07:18:49;27.20;70.50
758;DHT22;363;48.764;9.172;2023-05-15T07:21:15;27.90;68.80
758;DHT22;363;48.764;9.172;2023-05-15T07:23:40;28.60;64.60
758;DHT22;363;48.764;9.172;2023-05-15T07:26:06;28.80;64.40
758;DHT22;363;48.764;9.172;2023-05-15T07:28:31;28.70;61.90
758;DHT22;363;48.764;9.172;2023-05-15T07:30:57;28.50;62.20
758;DHT22;363;48.764;9.172;2023-05-15T07:33:23;28.30;61.60
758;DHT22;363;48.764;9.172;2023-05-15T07:35:49;28.10;61.60
758;DHT22;363;48.764;9.172;2023-05-15T07:38:15;27.30;62.00
758;DHT22;363;48.764;9.172;2023-05-15T07:40:40;27.10;64.10
758;DHT22;363;48.764;9.172;2023-05-15T07:43:06;27.10;65.50
758;DHT22;363;48.764;9.172;2023-05-15T07:45:32;28.00;65.70
758;DHT22;363;48.764;9.172;2023-05-15T07:47:57;28.10;63.30
758;DHT22;363;48.764;9.172;2023-05-15T07:50:23;28.40;60.70
758;DHT22;363;48.764;9.172;2023-05-15T07:52:48;28.10;59.30
758;DHT22;363;48.764;9.172;2023-05-15T07:55:14;28.00;61.90
758;DHT22;363;48.764;9.172;2023-05-15T07:57:40;28.50;59.40
758;DHT22;363;48.764;9.172;2023-05-15T08:00:06;29.50;57.20
758;DHT22;363;48.764;9.172;2023-05-15T08:02:38;29.70;55.90
758;DHT22;363;48.764;9.172;2023-05-15T08:05:04;29.90;54.80
758;DHT22;363;48.764;9.172;2023-05-15T08:07:31;30.00;54.60
758;DHT22;363;48.764;9.172;2023-05-15T08:09:58;29.20;56.00
758;DHT22;363;48.764;9.172;2023-05-15T08:12:23;29.70;55.50
758;DHT22;363;48.764;9.172;2023-05-15T08:14:50;30.30;54.60
758;DHT22;363;48.764;9.172;2023-05-15T08:17:16;31.50;52.30
758;DHT22;363;48.764;9.172;2023-05-15T08:19:42;31.80;51.10
758;DHT22;363;48.764;9.172;2023-05-15T08:22:08;31.40;51.00
758;DHT22;363;48.764;9.172;2023-05-15T08:24:33;31.10;50.90
758;DHT22;363;48.764;9.172;2023-05-15T08:26:59;29.80;52.80
758;DHT22;363;48.764;9.172;2023-05-15T08:29:25;29.30;53.70
758;DHT22;363;48.764;9.172;2023-05-15T08:31:51;28.20;56.40
758;DHT22;363;48.764;9.172;2023-05-15T08:34:16;28.40;56.50
758;DHT22;363;48.764;9.172;2023-05-15T08:36:42;27.70;56.80
758;DHT22;363;48.764;9.172;2023-05-15T08:39:09;28.00;58.00
758;DHT22;363;48.764;9.172;2023-05-15T08:41:47;27.90;55.20
758;DHT22;363;48.764;9.172;2023-05-15T08:44:15;27.70;55.70
758;DHT22;363;48.764;9.172;2023-05-15T08:46:42;27.10;55.90
758;DHT22;363;48.764;9.172;2023-05-15T08:49:15;27.10;56.20
758;DHT22;363;48.764;9.172;2023-05-15T08:51:42;28.20;56.60
758;DHT22;363;48.764;9.172;2023-05-15T08:54:08;30.00;53.50
758;DHT22;363;48.764;9.172;2023-05-15T08:56:34;30.10;53.10
758;DHT22;363;48.764;9.172;2023-05-15T08:59:00;29.70;51.10
758;DHT22;363;48.764;9.172;2023-05-15T09:01:27;30.30;51.50
758;DHT22;363;48.764;9.172;2023-05-15T09:03:53;30.50;51.80
758;DHT22;363;48.764;9.172;2023-05-15T09:06:18;29.20;52.80
758;DHT22;363;48.764;9.172;2023-05-15T09:08:45;29.70;52.80
758;DHT22;363;48.764;9.172;2023-05-15T09:11:12;30.70;52.30
758;DHT22;363;48.764;9.172;2023-05-15T09:13:38;30.50;49.80
758;DHT22;363;48.764;9.172;2023-05-15T09:16:04;29.40;51.20
758;DHT22;363;48.764;9.172;2023-05-15T09:18:31;28.50;53.10
758;DHT22;363;48.764;9.172;2023-05-15T09:21:20;27.30;55.30
758;DHT22;363;48.764;9.172;2023-05-15T09:23:46;27.10;55.50
758;DHT22;363;48.764;9.172;2023-05-15T09:26:12;27.10;57.20
758;DHT22;363;48.764;9.172;2023-05-15T09:28:37;28.50;55.30
758;DHT22;363;48.764;9.172;2023-05-15T09:31:04;28.50;54.90
758;DHT22;363;48.764;9.172;2023-05-15T09:33:38;27.70;56.00
758;DHT22;363;48.764;9.172;2023-05-15T09:36:06;26.80;57.20
758;DHT22;363;48.764;9.172;2023-05-15T09:38:33;25.90;58.70
758;DHT22;363;48.764;9.172;2023-05-15T09:41:04;25.40;60.10
758;DHT22;363;48.764;9.172;2023-05-15T09:43:35;26.30;58.60
758;DHT22;363;48.764;9.172;2023-05-15T09:46:01;27.70;55.60
758;DHT22;363;48.764;9.172;2023-05-15T09:48:27;27.90;54.00
758;DHT22;363;48.764;9.172;2023-05-15T09:50:53;28.10;54.20
758;DHT22;363;48.764;9.172;2023-05-15T09:53:21;28.60;53.80
758;DHT22;363;48.764;9.172;2023-05-15T09:55:47;29.80;51.80
758;DHT22;363;48.764;9.172;2023-05-15T09:58:17;30.00;51.60
758;DHT22;363;48.764;9.172;2023-05-15T10:00:44;30.00;51.40
758;DHT22;363;48.764;9.172;2023-05-15T10:03:11;31.00;50.80
758;DHT22;363;48.764;9.172;2023-05-15T10:05:38;31.30;48.90
758;DHT22;363;48.764;9.172;2023-05-15T10:08:04;30.00;50.10
758;DHT22;363;48.764;9.172;2023-05-15T10:10:30;29.30;50.90
758;DHT22;363;48.764;9.172;2023-05-15T10:12:58;28.90;52.30
758;DHT22;363;48.764;9.172;2023-05-15T10:15:26;28.20;52.40
758;DHT22;363;48.764;9.172;2023-05-15T10:17:52;26.60;54.00
758;DHT22;363;48.764;9.172;2023-05-15T10:20:19;25.70;56.90
758;DHT22;363;48.764;9.172;2023-05-15T10:22:53;25.10;57.60
758;DHT22;363;48.764;9.172;2023-05-15T10:27:57;24.00;58.50
758;DHT22;363;48.764;9.172;2023-05-15T10:30:23;23.50;63.00
758;DHT22;363;48.764;9.172;2023-05-15T10:32:50;23.00;63.10
758;DHT22;363;48.764;9.172;2023-05-15T10:35:16;22.80;64.10
758;DHT22;363;48.764;9.172;2023-05-15T10:37:44;22.80;63.00
758;DHT22;363;48.764;9.172;2023-05-15T10:40:12;22.70;62.90
758;DHT22;363;48.764;9.172;2023-05-15T10:42:41;22.70;63.70
758;DHT22;363;48.764;9.172;2023-05-15T10:45:08;21.70;64.40
758;DHT22;363;48.764;9.172;2023-05-15T10:47:35;21.70;68.40
758;DHT22;363;48.764;9.172;2023-05-15T10:50:03;21.90;69.90
758;DHT22;363;48.764;9.172;2023-05-15T10:52:31;22.40;64.10
758;DHT22;363;48.764;9.172;2023-05-15T10:54:57;22.20;62.70
758;DHT22;363;48.764;9.172;2023-05-15T10:57:23;21.90;65.10
758;DHT22;363;48.764;9.172;2023-05-15T10:59:49;22.20;64.30
758;DHT22;363;48.764;9.172;2023-05-15T11:04:56;24.10;59.20
758;DHT22;363;48.764;9.172;2023-05-15T11:07:22;25.60;57.10
758;DHT22;363;48.764;9.172;2023-05-15T11:09:49;26.20;55.80
758;DHT22;363;48.764;9.172;2023-05-15T11:12:15;25.60;57.10
758;DHT22;363;48.764;9.172;2023-05-15T11:17:31;26.30;54.80
758;DHT22;363;48.764;9.172;2023-05-15T11:19:58;26.60;53.20
758;DHT22;363;48.764;9.172;2023-05-15T11:22:34;26.10;54.00
758;DHT22;363;48.764;9.172;2023-05-15T11:25:05;26.20;53.50
758;DHT22;363;48.764;9.172;2023-05-15T11:27:37;26.70;53.20
758;DHT22;363;48.764;9.172;2023-05-15T11:30:21;27.90;51.30
758;DHT22;363;48.764;9.172;2023-05-15T11:33:09;26.80;51.40
758;DHT22;363;48.764;9.172;2023-05-15T11:35:43;27.40;51.50
758;DHT22;363;48.764;9.172;2023-05-15T11:38:12;26.80;52.20
758;DHT22;363;48.764;9.172;2023-05-15T11:40:59;27.60;50.00
758;DHT22;363;48.764;9.172;2023-05-15T11:43:32;26.90;50.50
758;DHT22;363;48.764;9.172;2023-05-15T11:46:09;26.10;48.60
758;DHT22;363;48.764;9.172;2023-05-15T11:48:37;26.40;50.20
758;DHT22;363;48.764;9.172;2023-05-15T11:51:04;26.70;49.30
758;DHT22;363;48.764;9.172;2023-05-15T11:53:31;26.20;50.00
758;DHT22;363;48.764;9.172;2023-05-15T11:55:57;26.10;52.20
758;DHT22;363;48.764;9.172;2023-05-15T11:58:24;25.70;53.00
758;DHT22;363;48.764;9.172;2023-05-15T12:00:51;25.20;52.60
758;DHT22;363;48.764;9.172;2023-05-15T12:03:25;24.50;53.50
758;DHT22;363;48.764;9.172;2023-05-15T12:05:51;24.30;54.20
758;DHT22;363;48.764;9.172;2023-05-15T12:08:19;24.10;55.20
758;DHT22;363;48.764;9.172;2023-05-15T12:10:46;23.90;56.40
758;DHT22;363;48.764;9.172;2023-05-15T12:13:12;23.50;56.30
758;DHT22;363;48.764;9.172;2023-05-15T12:15:41;23.60;55.50
758;DHT22;363;48.764;9.172;2023-05-15T12:18:07;23.00;56.80
758;DHT22;363;48.764;9.172;2023-05-15T12:20:34;23.10;57.00
758;DHT22;363;48.764;9.172;2023-05-15T12:23:04;23.20;56.50
758;DHT22;363;48.764;9.172;2023-05-15T12:25:35;23.00;57.00
758;DHT22;363;48.764;9.172;2023-05-15T12:28:02;22.70;58.70
758;DHT22;363;48.764;9.172;2023-05-15T12:30:32;22.50;59.60
758;DHT22;363;48.764;9.172;2023-05-15T12:33:03;22.50;60.40
758;DHT22;363;48.764;9.172;2023-05-15T12:35:32;22.30;60.40
758;DHT22;363;48.764;9.172;2023-05-15T12:38:01;22.40;61.40
758;DHT22;363;48.764;9.172;2023-05-15T12:40:27;22.50;60.90
758;DHT22;363;48.764;9.172;2023-05-15T12:42:53;22.70;56.90
758;DHT22;363;48.764;9.172;2023-05-15T12:45:21;22.70;56.10
758;DHT22;363;48.764;9.172;2023-05-15T12:47:48;23.00;57.00
758;DHT22;363;48.764;9.172;2023-05-15T12:50:19;23.90;58.00
758;DHT22;363;48.764;9.172;2023-05-15T12:52:55;23.20;57.40
758;DHT22;363;48.764;9.172;2023-05-15T12:55:26;23.20;57.60
758;DHT22;363;48.764;9.172;2023-05-15T12:57:55;23.20;58.10
758;DHT22;363;48.764;9.172;2023-05-15T13:00:22;22.80;58.50
758;DHT22;363;48.764;9.172;2023-05-15T13:02:56;22.60;59.30
758;DHT22;363;48.764;9.172;2023-05-15T13:05:22;22.90;60.00
758;DHT22;363;48.764;9.172;2023-05-15T13:07:49;22.70;59.90
758;DHT22;363;48.764;9.172;2023-05-15T13:10:15;22.30;61.50
758;DHT22;363;48.764;9.172;2023-05-15T13:12:43;21.90;62.50
758;DHT22;363;48.764;9.172;2023-05-15T13:18:02;21.40;67.00
758;DHT22;363;48.764;9.172;2023-05-15T13:20:32;21.20;66.20
758;DHT22;363;48.764;9.172;2023-05-15T13:22:59;21.20;65.10
758;DHT22;363;48.764;9.172;2023-05-15T13:25:24;21.20;63.90
758;DHT22;363;48.764;9.172;2023-05-15T13:27:50;21.30;64.70
758;DHT22;363;48.764;9.172;2023-05-15T13:30:17;21.20;64.10
758;DHT22;363;48.764;9.172;2023-05-15T13:32:43;21.20;64.40
758;DHT22;363;48.764;9.172;2023-05-15T13:35:09;20.90;64.90
758;DHT22;363;48.764;9.172;2023-05-15T13:37:36;20.80;65.30
758;DHT22;363;48.764;9.172;2023-05-15T13:40:02;20.90;66.70
758;DHT22;363;48.764;9.172;2023-05-15T13:42:31;20.50;66.10
758;DHT22;363;48.764;9.172;2023-05-15T13:44:57;21.00;67.50
758;DHT22;363;48.764;9.172;2023-05-15T13:47:22;21.10;67.20
758;DHT22;363;48.764;9.172;2023-05-15T13:49:48;21.20;66.50
758;DHT22;363;48.764;9.172;2023-05-15T13:52:13;21.40;66.50
758;DHT22;363;48.764;9.172;2023-05-15T13:54:39;21.40;67.80
758;DHT22;363;48.764;9.172;2023-05-15T13:57:05;21.60;67.40
758;DHT22;363;48.764;9.172;2023-05-15T13:59:30;21.60;66.90
758;DHT22;363;48.764;9.172;2023-05-15T14:01:56;21.60;72.10
758;DHT22;363;48.764;9.172;2023-05-15T14:04:22;21.40;75.00
758;DHT22;363;48.764;9.172;2023-05-15T14:06:47;21.30;75.20
758;DHT22;363;48.764;9.172;2023-05-15T14:09:13;21.80;79.30
758;DHT22;363;48.764;9.172;2023-05-15T14:11:38;21.50;77.80
758;DHT22;363;48.764;9.172;2023-05-15T14:14:04;21.60;78.50
758;DHT22;363;48.764;9.172;2023-05-15T14:16:29;21.20;77.40
758;DHT22;363;48.764;9.172;2023-05-15T14:18:55;21.30;74.80
758;DHT22;363;48.764;9.172;2023-05-15T14:21:21;21.30;72.60
758;DHT22;363;48.764;9.172;2023-05-15T14:23:47;21.20;73.90
758;DHT22;363;48.764;9.172;2023-05-15T14:26:12;21.20;72.70
758;DHT22;363;48.764;9.172;2023-05-15T14:28:38;21.60;74.10
758;DHT22;363;48.764;9.172;2023-05-15T14:31:04;21.30;73.90
758;DHT22;363;48.764;9.172;2023-05-15T14:33:29;21.40;74.70
758;DHT22;363;48.764;9.172;2023-05-15T14:35:55;21.40;74.80
758;DHT22;363;48.764;9.172;2023-05-15T14:38:20;21.40;75.70
758;DHT22;363;48.764;9.172;2023-05-15T14:40:46;21.30;75.20
758;DHT22;363;48.764;9.172;2023-05-15T14:43:11;21.40;75.00
758;DHT22;363;48.764;9.172;2023-05-15T14:45:37;21.50;74.70
758;DHT22;363;48.764;9.172;2023-05-15T14:48:03;21.30;74.40
758;DHT22;363;48.764;9.172;2023-05-15T14:50:28;21.30;74.20
758;DHT22;363;48.764;9.172;2023-05-15T14:52:54;21.40;75.20
758;DHT22;363;48.764;9.172;2023-05-15T14:55:20;21.30;74.30
758;DHT22;363;48.764;9.172;2023-05-15T14:57:48;21.40;73.40
758;DHT22;363;48.764;9.172;2023-05-15T15:00:15;21.10;74.10
758;DHT22;363;48.764;9.172;2023-05-15T15:02:43;21.20;74.40
758;DHT22;363;48.764;9.172;2023-05-15T15:05:10;21.40;69.50
758;DHT22;363;48.764;9.172;2023-05-15T15:08:04;21.50;66.70
758;DHT22;363;48.764;9.172;2023-05-15T15:10:32;21.60;66.50
758;DHT22;363;48.764;9.172;2023-05-15T15:13:00;21.60;66.80
758;DHT22;363;48.764;9.172;2023-05-15T15:15:29;21.50;67.40
758;DHT22;363;48.764;9.172;2023-05-15T15:17:57;21.60;68.20
758;DHT22;363;48.764;9.172;2023-05-15T15:20:23;21.10;68.40
758;DHT22;363;48.764;9.172;2023-05-15T15:22:50;20.90;70.00
758;DHT22;363;48.764;9.172;2023-05-15T15:25:16;20.80;69.50
758;DHT22;363;48.764;9.172;2023-05-15T15:27:42;20.50;69.50
758;DHT22;363;48.764;9.172;2023-05-15T15:30:09;20.50;70.00
758;DHT22;363;48.764;9.172;2023-05-15T15:32:36;20.70;69.50
758;DHT22;363;48.764;9.172;2023-05-15T15:35:02;21.10;68.70
758;DHT22;363;48.764;9.172;2023-05-15T15:37:33;20.60;68.80
758;DHT22;363;48.764;9.172;2023-05-15T15:40:00;20.70;68.00
758;DHT22;363;48.764;9.172;2023-05-15T15:42:27;20.70;66.70
758;DHT22;363;48.764;9.172;2023-05-15T15:44:54;20.60;68.70
758;DHT22;363;48.764;9.172;2023-05-15T15:47:20;20.40;68.80
758;DHT22;363;48.764;9.172;2023-05-15T15:49:45;20.30;70.10
758;DHT22;363;48.764;9.172;2023-05-15T15:52:11;20.20;73.10
758;DHT22;363;48.764;9.172;2023-05-15T15:54:37;19.50;75.50
758;DHT22;363;48.764;9.172;2023-05-15T15:57:03;19.50;77.20
758;DHT22;363;48.764;9.172;2023-05-15T15:59:28;19.40;76.70
758;DHT22;363;48.764;9.172;2023-05-15T16:01:54;19.40;75.90
758;DHT22;363;48.764;9.172;2023-05-15T16:04:20;19.40;77.10
758;DHT22;363;48.764;9.172;2023-05-15T16:06:47;19.20;76.20
758;DHT22;363;48.764;9.172;2023-05-15T16:09:13;19.20;76.00
758;DHT22;363;48.764;9.172;2023-05-15T16:11:38;19.00;75.70
758;DHT22;363;48.764;9.172;2023-05-15T16:14:04;18.70;78.20
758;DHT22;363;48.764;9.172;2023-05-15T16:16:30;19.10;80.00
758;DHT22;363;48.764;9.172;2023-05-15T16:18:55;18.80;79.40
758;DHT22;363;48.764;9.172;2023-05-15T16:21:21;19.00;85.50
758;DHT22;363;48.764;9.172;2023-05-15T16:23:47;18.60;88.40
758;DHT22;363;48.764;9.172;2023-05-15T16:26:12;18.30;91.10
758;DHT22;363;48.764;9.172;2023-05-15T16:28:38;18.20;91.20
758;DHT22;363;48.764;9.172;2023-05-15T16:31:03;18.10;92.60
758;DHT22;363;48.764;9.172;2023-05-15T16:33:30;18.10;92.70
758;DHT22;363;48.764;9.172;2023-05-15T16:35:56;17.90;93.40
758;DHT22;363;48.764;9.172;2023-05-15T16:38:22;17.70;93.30
758;DHT22;363;48.764;9.172;2023-05-15T16:40:49;17.70;94.00
758;DHT22;363;48.764;9.172;2023-05-15T16:43:15;17.50;93.70
758;DHT22;363;48.764;9.172;2023-05-15T16:45:41;17.60;93.70
758;DHT22;363;48.764;9.172;2023-05-15T16:48:08;17.60;93.30
758;DHT22;363;48.764;9.172;2023-05-15T16:50:35;17.30;91.50
758;DHT22;363;48.764;9.172;2023-05-15T16:53:01;17.40;92.40
758;DHT22;363;48.764;9.172;2023-05-15T16:55:27;17.60;91.00
758;DHT22;363;48.764;9.172;2023-05-15T16:57:53;17.40;90.90